Nearby METAR Reports

METAR is the scheduled surface weather observation taken hourly at civil and military airport locations.

METAR is an acronym from the French language and roughly translates as Aviation Routine Weather Report.

 

EGPL - Benbecula Island, United Kingdom
Distance from station: WNW 41mi, 66km
Updated: 16/05/2021 10:50
Mostly cloudy
Mostly cloudy
 Wind from N
Wind: N 10 mph , 17 km/h
Temperature: 10°C
Wind Chill: 8°C
Dew Point: 7°C
Humidity: 82%
Barometer: 998 hPa
Clouds: Mostly cloudy
Visibility: 6 miles , 10 km
Cloud details: Mostly cloudy 427 m
Mostly cloudy 671 m
Mostly cloudy 853 m
2021/05/16 09:50 EGPL 160950Z AUTO 36009KT 9999 BKN014/// BKN022/// BKN028/// 10/07 Q0998
EGPU - Tiree Island, United Kingdom
Distance from station: SSW 56mi, 90km
Updated: 16/05/2021 10:50
Clear
Clear
 Wind from N
Wind: N 13 mph , 20 km/h
Temperature: 10°C
Wind Chill: 7°C
Dew Point: 7°C
Humidity: 82%
Barometer: 998 hPa
Clouds: Clear
Visibility: 6 miles , 10 km
2021/05/16 09:50 EGPU 160950Z AUTO 01011KT 340V040 9999 NCD 10/07 Q0998
 
EGEO - Oban Airport, United Kingdom
Distance from station: SE 65mi, 105km
Updated: 16/05/2021 10:50
Partly cloudy
Partly cloudy
 Wind from NNW
Wind: NNW 5 mph , 7 km/h
Temperature: 13°C
Dew Point: 6°C
Humidity: 63%
Barometer: 997 hPa
Clouds: Partly cloudy
Visibility: 6 miles , 10 km
Cloud details: Few Clouds 610 m
Partly cloudy 1128 m
2021/05/16 09:50 EGEO 160950Z 33004KT 9999 FEW020 SCT037 13/06 Q0997
EGPO - Stornoway, United Kingdom
Distance from station: 0 66mi, 106km
Updated: 16/05/2021 10:50
Overcast
Overcast
 Wind from N
Wind: N 6 mph , 9 km/h
Temperature: 10°C
Wind Chill: 9°C
Dew Point: 7°C
Humidity: 82%
Barometer: 997 hPa
Clouds: Overcast
Visibility: 6 miles , 10 km
Cloud details: Mostly cloudy 457 m
Mostly cloudy 610 m
Overcast 1219 m
2021/05/16 09:50 EGPO 160950Z AUTO 36005KT 310V090 9999 BKN015/// BKN020/// OVC040/// 10/07 Q0997
 
EGPE - Inverness/Dalcro, United Kingdom
Distance from station: ENE 88mi, 141km
Updated: 16/05/2021 10:50
Few Clouds
Few Clouds
 Wind from varies
Wind: varies 2 mph , 4 km/h
Temperature: 11°C
Dew Point: 6°C
Humidity: 72%
Barometer: 998 hPa
Clouds: Few Clouds
Visibility: 6 miles , 10 km
Cloud details: Few Clouds 1219 m
2021/05/16 09:50 EGPE 160950Z VRB02KT 9999 FEW040 11/06 Q0998
EGQA - Tain Range (saws, United Kingdom
Distance from station: ENE 97mi, 156km
Updated: 13/05/2021 14:50
NOT Current
Mostly cloudy
Mostly cloudy
 Wind from NE
Wind: NE 14 mph , 22 km/h
Clouds: Mostly cloudy
Visibility: 6 miles , 10 km
Cloud details: Partly cloudy 122 m
Mostly cloudy 701 m
2021/05/13 13:50 EGQA 131350Z 04012KT 9999 SCT004 BKN023 12/// Q1014 RMK YLO2
 
EGQK - Kinloss Raf, United Kingdom
Distance from station: ENE 107mi, 171km
Updated: 16/05/2021 09:50
NOT Current

 Wind from NNW
Wind: NNW 6 mph , 9 km/h
Temperature: 10°C
Wind Chill: 9°C
Dew Point: 7°C
Humidity: 82%
Barometer: 997 hPa
Visibility: 6 miles , 10 km
2021/05/16 08:50 EGQK 160850Z AUTO 34005KT 9999 ///////// 10/07 Q0997
EGPI - Islay/Port Ellen, United Kingdom
Distance from station: S 110mi, 177km
Updated: 16/05/2021 10:50
Clear
Clear
 Wind from varies
Wind: varies 12 mph , 19 km/h
Temperature: 14°C
Dew Point: 4°C
Humidity: 51%
Barometer: 997 hPa
Clouds: Clear
Visibility: 6 miles , 10 km
2021/05/16 09:50 EGPI 160950Z AUTO VRB10KT 9999 NCD 14/04 Q0997
 
EGQS - Lossiemouth Raf, United Kingdom
Distance from station: ENE 117mi, 188km
Updated: 16/05/2021 10:50
Few Clouds
Few Clouds
 Wind from NNE
Wind: NNE 6 mph , 9 km/h
Temperature: 10°C
Wind Chill: 9°C
Dew Point: 6°C
Humidity: 76%
Barometer: 997 hPa
Clouds: Few Clouds
Visibility: 6 miles , 10 km
Cloud details: Few Clouds 914 m
2021/05/16 09:50 EGQS 160950Z 02005KT 9999 FEW030 10/06 Q0997 BLU RMK BLU
EGPF - Glasgow Airport, United Kingdom
Distance from station: SE 121mi, 195km
Updated: 16/05/2021 10:50
Clear
Clear
 Wind from NE
Wind: NE 10 mph , 17 km/h
Temperature: 12°C
Dew Point: 7°C
Humidity: 72%
Barometer: 998 hPa
Clouds: Clear
Visibility: 6 miles , 10 km
2021/05/16 09:50 EGPF 160950Z AUTO 04009KT 9999 NCD 12/07 Q0998
 
EGEC - Campbeltown, United Kingdom
Distance from station: SSE 129mi, 207km
Updated: 14/05/2021 17:20
NOT Current
Mostly cloudy
Mostly cloudy
 Wind from ESE
Wind: ESE 16 mph , 26 km/h
Temperature: 10°C
Wind Chill: 7°C
Dew Point: 8°C
Humidity: 88%
Barometer: 1007 hPa
Clouds: Mostly cloudy
Visibility: 6 miles , 10 km
Cloud details: Partly cloudy 396 m
Mostly cloudy 732 m
2021/05/14 16:20 EGEC 141620Z 11014KT 9999 SCT013 BKN024 10/08 Q1007
EGPN - Dundee/Riverside, United Kingdom
Distance from station: ESE 137mi, 221km
Updated: 16/05/2021 10:50
Partly cloudy
Partly cloudy
 Wind from ESE
Wind: ESE 7 mph , 11 km/h
Temperature: 11°C
Dew Point: 6°C
Humidity: 72%
Barometer: 998 hPa
Clouds: Partly cloudy
Visibility: 6 miles , 10 km
Cloud details: Few Clouds 305 m
Partly cloudy 732 m
2021/05/16 09:50 EGPN 160950Z 11006KT 9999 FEW010 SCT024 11/06 Q0998
 
EGPK - Prestwick(Civ/Na, United Kingdom
Distance from station: SSE 139mi, 224km
Updated: 16/05/2021 10:50
Partly cloudy
Partly cloudy
 Wind from ENE
Wind: ENE 9 mph , 15 km/h
Temperature: 13°C
Dew Point: 7°C
Humidity: 67%
Barometer: 997 hPa
Clouds: Partly cloudy
Visibility: 6 miles , 10 km
Cloud details: Partly cloudy 1372 m
2021/05/16 09:50 EGPK 160950Z 06008KT 030V100 9999 SCT045 13/07 Q0997
EGQL - Leuchars Raf, United Kingdom
Distance from station: ESE 145mi, 233km
Updated: 16/05/2021 10:50
Partly cloudy
Partly cloudy
 Wind from E
Wind: E 10 mph , 17 km/h
Temperature: 11°C
Dew Point: 7°C
Humidity: 77%
Barometer: 998 hPa
Clouds: Partly cloudy
Visibility: 6 miles , 10 km
Cloud details: Few Clouds 335 m
Partly cloudy 1280 m
2021/05/16 09:50 EGQL 160950Z 10009KT 9999 FEW011 SCT042 11/07 Q0998 BLU
 
EGPH - Edinburgh Airpor, United Kingdom
Distance from station: SE 145mi, 234km
Updated: 16/05/2021 10:50
Few Clouds
Few Clouds
 Wind from NNE
Wind: NNE 7 mph , 11 km/h
Temperature: 11°C
Dew Point: 6°C
Humidity: 72%
Barometer: 997 hPa
Clouds: Few Clouds
Visibility: 6 miles , 10 km
Cloud details: Few Clouds 792 m
2021/05/16 09:50 EGPH 160950Z 03006KT 9999 FEW026 11/06 Q0997
EGPC - Wick, United Kingdom
Distance from station: NE 146mi, 234km
Updated: 16/05/2021 10:50
Partly cloudy
Partly cloudy
 Wind from SSE
Wind: SSE 9 mph , 15 km/h
Temperature: 10°C
Wind Chill: 8°C
Dew Point: 7°C
Humidity: 82%
Barometer: 998 hPa
Clouds: Partly cloudy
Visibility: 6 miles , 10 km
Cloud details: Few Clouds 427 m
Partly cloudy 1219 m
2021/05/16 09:50 EGPC 160950Z 15008KT 110V180 9999 FEW014 SCT040 10/07 Q0998

-

free counters
QR Code Twitter Scottish Weather Network UK Weather Network
Argyll House B & B

Argyll House B & B is situated in North West Skye and is the perfect base to see all that the Isle of Skye has to offer. Bookings are been taken for 2021 and 2022